Time;durP1;ratioP1;P1;durP2;ratioP2;P2;SDS_P1;SDS_P2;PMS_P1;PMS_P2;Temp;Humidity;BMP_temperature;BMP_pressure;BME280_temperature;BME280_humidity;BME280_pressure;Samples;Min_cycle;Max_cycle;Signal;HPM_P1;HPM_P2
2022/05/18 00:00:45;;;;;;;2.15;1.98;;;21.90;53.40;;;;;;4974824;28;20202;-71
2022/05/18 00:03:13;;;;;;;2.10;1.95;;;21.90;52.80;;;;;;4974799;28;20198;-72
2022/05/18 00:05:41;;;;;;;1.90;1.80;;;21.90;52.80;;;;;;4974872;28;20222;-74
2022/05/18 00:08:09;;;;;;;2.10;2.00;;;21.90;53.40;;;;;;4975180;28;20574;-73
2022/05/18 00:10:38;;;;;;;2.70;1.83;;;21.90;52.90;;;;;;4975180;28;20548;-72
2022/05/18 00:13:05;;;;;;;2.33;2.00;;;21.90;52.90;;;;;;4974618;28;20272;-71
2022/05/18 00:15:32;;;;;;;1.85;1.75;;;21.80;52.80;;;;;;4975973;28;20214;-71
2022/05/18 00:18:00;;;;;;;1.90;1.80;;;21.80;52.80;;;;;;4976000;28;20201;-71
2022/05/18 00:20:27;;;;;;;2.25;1.98;;;21.80;52.90;;;;;;4974377;28;20215;-71
2022/05/18 00:22:55;;;;;;;2.03;1.92;;;21.80;53.00;;;;;;4974288;28;20598;-71
2022/05/18 00:25:26;;;;;;;2.05;1.88;;;21.80;53.00;;;;;;4975393;28;20219;-72
2022/05/18 00:27:53;;;;;;;2.33;2.08;;;21.80;53.00;;;;;;4975576;28;20273;-71
2022/05/18 00:30:21;;;;;;;1.88;1.77;;;21.70;53.60;;;;;;4973460;28;20205;-71
2022/05/18 00:32:48;;;;;;;2.22;2.10;;;21.70;53.00;;;;;;4974100;28;20293;-72
2022/05/18 00:35:16;;;;;;;2.28;2.08;;;21.70;53.00;;;;;;4975509;28;20221;-71
2022/05/18 00:37:42;;;;;;;2.42;2.22;;;21.70;53.00;;;;;;4974085;28;20198;-71
2022/05/18 00:40:11;;;;;;;2.08;1.83;;;21.80;53.10;;;;;;4974090;28;20206;-71
2022/05/18 00:42:40;;;;;;;2.35;2.15;;;21.70;53.00;;;;;;4974032;28;20202;-71
2022/05/18 00:45:09;;;;;;;2.08;1.88;;;21.70;53.00;;;;;;4974303;28;20585;-71
2022/05/18 00:47:35;;;;;;;2.13;2.03;;;21.70;53.00;;;;;;4975174;28;20194;-71
2022/05/18 00:50:07;;;;;;;2.20;2.10;;;21.70;53.00;;;;;;4975253;28;20277;-71
2022/05/18 00:52:36;;;;;;;2.65;2.13;;;21.70;53.10;;;;;;4974031;28;20197;-72
2022/05/18 00:55:03;;;;;;;1.80;1.70;;;21.60;53.00;;;;;;4974046;28;20225;-71
2022/05/18 00:57:31;;;;;;;3.35;1.98;;;21.60;53.00;;;;;;4975429;28;20280;-71
2022/05/18 01:00:02;;;;;;;2.28;2.08;;;21.60;53.00;;;;;;4973990;28;20198;-71
2022/05/18 01:02:33;;;;;;;2.58;2.10;;;21.60;53.00;;;;;;4974136;28;20231;-71
2022/05/18 01:05:02;;;;;;;2.20;2.00;;;21.60;53.00;;;;;;4975136;28;20588;-71
2022/05/18 01:07:31;;;;;;;2.30;2.10;;;21.60;53.00;;;;;;4973815;28;20246;-71
2022/05/18 01:09:59;;;;;;;1.90;1.80;;;21.60;53.10;;;;;;4974738;28;20202;-71
2022/05/18 01:12:26;;;;;;;2.17;1.98;;;21.60;53.10;;;;;;4975103;28;20217;-71
2022/05/18 01:14:54;;;;;;;2.08;1.98;;;21.50;53.00;;;;;;4974237;28;20222;-71
2022/05/18 01:17:24;;;;;;;1.98;1.85;;;21.60;53.10;;;;;;4973642;28;20206;-71
2022/05/18 01:19:52;;;;;;;2.50;2.00;;;21.60;53.10;;;;;;4973933;28;20253;-72
2022/05/18 01:22:28;;;;;;;2.40;2.20;;;21.50;53.10;;;;;;4973794;28;20292;-71
2022/05/18 01:25:01;;;;;;;2.00;1.90;;;21.50;53.10;;;;;;4974194;28;20573;-71
2022/05/18 01:27:29;;;;;;;2.15;2.00;;;21.50;53.10;;;;;;4973570;28;20229;-71
2022/05/18 01:29:57;;;;;;;2.03;1.92;;;21.50;53.10;;;;;;4973559;28;20285;-71
2022/05/18 01:32:24;;;;;;;2.00;1.88;;;21.50;53.20;;;;;;4973540;28;20611;-71
2022/05/18 01:34:52;;;;;;;2.67;2.47;;;21.50;53.80;;;;;;4973504;28;20237;-71
2022/05/18 01:37:19;;;;;;;2.05;1.95;;;21.50;53.20;;;;;;4973746;28;20198;-71
2022/05/18 01:39:50;;;;;;;2.20;1.95;;;21.50;53.30;;;;;;4973294;28;20197;-71
2022/05/18 01:42:22;;;;;;;2.22;2.00;;;21.50;53.30;;;;;;4976477;28;20201;-72
2022/05/18 01:44:51;;;;;;;2.35;2.10;;;21.50;53.30;;;;;;4981330;28;20839;-71
2022/05/18 01:47:17;;;;;;;1.98;1.88;;;21.40;53.20;;;;;;4979698;28;20205;-71
2022/05/18 01:49:45;;;;;;;2.30;2.10;;;21.40;53.20;;;;;;4979691;28;20197;-72
2022/05/18 01:52:13;;;;;;;2.53;2.30;;;21.40;53.20;;;;;;4981288;28;20269;-71
2022/05/18 01:54:42;;;;;;;2.42;2.10;;;21.40;53.40;;;;;;4980811;28;20220;-71
2022/05/18 01:57:09;;;;;;;2.95;2.20;;;21.40;53.30;;;;;;4979747;28;20206;-71
2022/05/18 01:59:36;;;;;;;2.25;2.13;;;21.40;53.30;;;;;;4981043;28;20198;-71
2022/05/18 02:02:06;;;;;;;2.50;2.30;;;21.40;53.30;;;;;;4981334;28;20200;-71
2022/05/18 02:04:33;;;;;;;2.08;1.95;;;21.40;53.30;;;;;;4979815;28;20198;-71
2022/05/18 02:07:01;;;;;;;2.15;2.05;;;21.40;53.40;;;;;;4979721;28;20301;-71
2022/05/18 02:09:28;;;;;;;2.17;1.98;;;21.40;53.40;;;;;;4979781;28;20204;-71
2022/05/18 02:11:55;;;;;;;3.17;2.20;;;21.30;53.30;;;;;;4980759;28;20194;-71
2022/05/18 02:14:22;;;;;;;2.55;2.10;;;21.40;53.40;;;;;;4979827;28;20221;-71
2022/05/18 02:16:49;;;;;;;2.60;2.40;;;21.30;53.30;;;;;;4981139;28;20301;-71
2022/05/18 02:19:18;;;;;;;2.40;2.20;;;21.30;53.40;;;;;;4980727;28;20193;-72
2022/05/18 02:21:45;;;;;;;3.03;2.10;;;21.30;53.40;;;;;;4981308;28;20543;-71
2022/05/18 02:24:12;;;;;;;2.55;2.10;;;21.30;53.30;;;;;;4980857;28;20186;-72
2022/05/18 02:26:39;;;;;;;2.38;2.17;;;21.30;53.40;;;;;;4980795;28;20228;-71
2022/05/18 02:29:06;;;;;;;2.55;2.35;;;21.30;53.50;;;;;;4979341;28;20208;-71
2022/05/18 02:31:34;;;;;;;2.20;2.10;;;21.30;54.00;;;;;;4979301;28;20202;-71
2022/05/18 02:34:01;;;;;;;2.30;2.10;;;21.30;53.40;;;;;;4979381;28;20228;-72
2022/05/18 02:36:29;;;;;;;2.30;2.20;;;21.30;53.40;;;;;;4980687;28;20214;-71
2022/05/18 02:38:56;;;;;;;2.20;2.10;;;21.30;53.40;;;;;;4979355;28;20202;-71
2022/05/18 02:41:23;;;;;;;2.30;2.10;;;21.30;53.40;;;;;;4979450;28;20208;-71
2022/05/18 02:43:51;;;;;;;2.45;2.25;;;21.30;53.50;;;;;;4980688;28;20225;-71
2022/05/18 02:46:19;;;;;;;2.45;2.30;;;21.20;53.30;;;;;;4979299;28;20224;-71
2022/05/18 02:48:47;;;;;;;2.20;2.10;;;21.20;53.50;;;;;;4979170;28;20198;-71
2022/05/18 02:51:16;;;;;;;2.30;2.10;;;21.20;53.40;;;;;;4979201;28;20682;-71
2022/05/18 02:53:44;;;;;;;3.33;2.40;;;21.20;53.40;;;;;;4976894;28;20222;-72
2022/05/18 02:56:12;;;;;;;2.53;2.33;;;21.10;53.90;;;;;;4976095;28;20214;-71
2022/05/18 02:58:40;;;;;;;2.85;2.47;;;21.20;53.40;;;;;;4977237;28;20182;-71
2022/05/18 03:01:07;;;;;;;2.38;2.17;;;21.10;53.50;;;;;;4977408;28;20194;-71
2022/05/18 03:03:35;;;;;;;2.50;2.30;;;21.10;53.40;;;;;;4976304;28;20198;-71
2022/05/18 03:06:03;;;;;;;2.45;2.35;;;21.10;53.30;;;;;;4976044;28;20691;-71
2022/05/18 03:08:32;;;;;;;2.50;2.30;;;21.10;53.40;;;;;;4975900;28;20202;-71
2022/05/18 03:11:00;;;;;;;2.22;2.10;;;21.10;53.40;;;;;;4977167;28;20194;-71
2022/05/18 03:13:28;;;;;;;4.00;2.70;;;21.10;53.40;;;;;;4976858;28;20206;-71
2022/05/18 03:15:55;;;;;;;2.63;2.30;;;21.10;53.50;;;;;;4975796;28;20645;-71
2022/05/18 03:18:22;;;;;;;2.45;2.25;;;21.10;54.10;;;;;;4977254;28;20186;-71
2022/05/18 03:23:36;;;;;;;3.55;2.17;;;21.20;53.60;;;;;;4975792;28;20187;-71
2022/05/18 03:26:08;;;;;;;2.30;2.20;;;21.10;53.70;;;;;;4975663;28;20222;-71
2022/05/18 03:28:35;;;;;;;2.42;2.33;;;21.20;53.70;;;;;;4975625;28;20198;-71
2022/05/18 03:31:02;;;;;;;2.35;2.22;;;21.30;53.60;;;;;;4975639;28;20762;-71
2022/05/18 03:33:29;;;;;;;3.50;2.15;;;21.30;53.50;;;;;;4975503;28;20222;-72
2022/05/18 03:35:56;;;;;;;2.47;2.28;;;21.30;53.30;;;;;;4976728;28;20209;-71
2022/05/18 03:38:23;;;;;;;2.70;2.50;;;21.30;53.10;;;;;;4975303;28;20249;-71
2022/05/18 03:40:50;;;;;;;2.78;2.47;;;21.40;53.10;;;;;;4975430;28;20221;-71
2022/05/18 03:43:18;;;;;;;2.78;2.22;;;21.40;53.30;;;;;;4975500;28;20289;-71
2022/05/18 03:45:45;;;;;;;2.67;2.20;;;21.40;53.20;;;;;;4975174;28;20222;-71
2022/05/18 03:48:15;;;;;;;2.75;2.42;;;21.40;53.60;;;;;;4975396;28;20201;-71
2022/05/18 03:50:45;;;;;;;2.63;2.42;;;21.40;53.00;;;;;;4975806;28;20285;-71
2022/05/18 03:53:12;;;;;;;2.22;2.10;;;21.40;53.00;;;;;;4975461;28;20229;-71
2022/05/18 03:55:41;;;;;;;2.70;2.50;;;21.40;52.80;;;;;;4975397;28;20229;-71
2022/05/18 03:58:09;;;;;;;3.40;2.55;;;21.40;52.90;;;;;;4975448;28;20202;-71
2022/05/18 04:00:38;;;;;;;2.45;2.25;;;21.50;52.90;;;;;;4976424;28;20194;-71
2022/05/18 04:03:06;;;;;;;2.38;2.20;;;21.50;52.90;;;;;;4975554;28;20288;-71
2022/05/18 04:05:36;;;;;;;2.40;2.20;;;21.40;52.90;;;;;;4975099;28;20769;-71
2022/05/18 04:08:04;;;;;;;2.38;2.22;;;21.40;52.80;;;;;;4975287;28;20212;-71
2022/05/18 04:10:31;;;;;;;3.55;2.20;;;21.40;52.80;;;;;;4977139;28;20201;-71
2022/05/18 04:12:58;;;;;;;2.15;2.05;;;21.40;52.80;;;;;;4981116;28;20216;-71
2022/05/18 04:15:27;;;;;;;2.40;2.20;;;21.40;52.90;;;;;;4981219;28;20252;-71
2022/05/18 04:17:55;;;;;;;2.85;2.30;;;21.40;52.90;;;;;;4975120;28;20200;-71
2022/05/18 04:20:23;;;;;;;2.45;2.25;;;21.40;52.90;;;;;;4974877;28;20260;-71
2022/05/18 04:22:50;;;;;;;3.03;2.30;;;21.40;52.90;;;;;;4975011;28;20206;-71
2022/05/18 04:25:19;;;;;;;2.75;2.33;;;21.40;52.90;;;;;;4974815;28;20217;-71
2022/05/18 04:27:47;;;;;;;2.53;2.33;;;21.40;52.80;;;;;;4974877;28;20210;-72
2022/05/18 04:30:15;;;;;;;2.55;2.35;;;21.40;52.90;;;;;;4976274;28;20186;-71
2022/05/18 04:32:42;;;;;;;2.63;2.10;;;21.40;52.90;;;;;;4974906;28;20618;-72
2022/05/18 04:35:11;;;;;;;2.60;2.40;;;21.40;52.90;;;;;;4974398;28;20226;-72
2022/05/18 04:37:38;;;;;;;2.80;2.60;;;21.40;52.90;;;;;;4974710;28;20198;-72
2022/05/18 04:40:07;;;;;;;2.88;2.67;;;21.40;52.90;;;;;;4975839;28;20198;-72
2022/05/18 04:42:34;;;;;;;2.58;2.38;;;21.50;53.20;;;;;;4974472;28;20659;-72
2022/05/18 04:45:01;;;;;;;2.95;2.60;;;21.50;53.30;;;;;;4974422;28;20309;-72
2022/05/18 04:47:28;;;;;;;2.50;2.30;;;21.60;53.10;;;;;;4974476;28;20198;-72
2022/05/18 04:49:56;;;;;;;2.45;2.30;;;21.90;52.90;;;;;;4974437;28;20245;-72
2022/05/18 04:52:25;;;;;;;2.67;2.47;;;22.00;52.50;;;;;;4975632;28;20248;-72
2022/05/18 04:54:52;;;;;;;2.90;2.70;;;22.20;52.20;;;;;;4974203;28;20257;-72
2022/05/18 04:57:20;;;;;;;2.40;2.20;;;22.40;51.90;;;;;;4974475;28;20663;-72
2022/05/18 04:59:48;;;;;;;2.60;2.40;;;22.60;51.50;;;;;;4974469;28;20202;-72
2022/05/18 05:02:15;;;;;;;2.60;2.40;;;22.80;51.20;;;;;;4974458;28;20202;-73
2022/05/18 05:04:41;;;;;;;2.75;2.55;;;22.90;50.90;;;;;;4975959;28;20241;-72
2022/05/18 05:07:09;;;;;;;2.53;2.33;;;23.00;50.50;;;;;;4976297;28;20194;-72
2022/05/18 05:09:37;;;;;;;2.63;2.42;;;23.30;50.40;;;;;;4976372;28;20194;-72
2022/05/18 05:12:05;;;;;;;2.63;2.40;;;23.40;50.10;;;;;;4975198;28;20202;-72
2022/05/18 05:14:34;;;;;;;2.22;2.13;;;23.50;49.70;;;;;;4975467;28;20222;-72
2022/05/18 05:17:02;;;;;;;2.90;2.70;;;23.60;49.40;;;;;;4975504;28;20230;-72
2022/05/18 05:19:29;;;;;;;2.75;2.55;;;23.80;49.20;;;;;;4974500;28;20228;-72
2022/05/18 05:21:56;;;;;;;2.35;2.20;;;23.90;48.90;;;;;;4974718;28;20257;-72
2022/05/18 05:24:23;;;;;;;2.60;2.40;;;24.00;49.00;;;;;;4974692;28;20229;-71
2022/05/18 05:26:52;;;;;;;2.50;2.30;;;24.10;48.70;;;;;;4975510;28;20213;-72
2022/05/18 05:29:19;;;;;;;2.30;2.10;;;24.20;48.50;;;;;;4974344;28;20231;-72
2022/05/18 05:31:46;;;;;;;2.58;2.38;;;24.30;48.30;;;;;;4975327;28;20206;-72
2022/05/18 05:34:13;;;;;;;2.38;2.20;;;24.40;48.20;;;;;;4975092;28;20300;-72
2022/05/18 05:36:40;;;;;;;2.40;2.20;;;24.50;47.90;;;;;;4973914;28;20253;-72
2022/05/18 05:39:07;;;;;;;2.53;2.33;;;24.60;47.80;;;;;;4974235;28;20273;-72
2022/05/18 05:41:34;;;;;;;2.67;2.30;;;24.70;47.70;;;;;;4973855;28;20336;-72
2022/05/18 05:44:02;;;;;;;2.42;2.22;;;24.80;47.50;;;;;;4974221;28;20611;-72
2022/05/18 05:46:29;;;;;;;2.72;2.53;;;24.90;47.40;;;;;;4973574;28;20218;-72
2022/05/18 05:48:57;;;;;;;2.38;2.17;;;24.90;47.30;;;;;;4973536;28;20202;-72
2022/05/18 05:51:24;;;;;;;2.08;1.98;;;25.00;47.10;;;;;;4973648;28;20198;-72
2022/05/18 05:53:51;;;;;;;2.33;2.22;;;25.10;47.50;;;;;;4973606;28;20198;-72
2022/05/18 05:56:19;;;;;;;2.35;2.15;;;25.10;46.70;;;;;;4973697;28;20214;-72
2022/05/18 05:58:47;;;;;;;2.20;2.10;;;25.20;46.50;;;;;;4975254;28;20202;-72
2022/05/18 06:01:17;;;;;;;1.95;1.85;;;25.30;46.30;;;;;;4974828;28;20221;-72
2022/05/18 06:03:44;;;;;;;1.90;1.80;;;25.40;46.10;;;;;;4974713;28;20196;-72
2022/05/18 06:06:11;;;;;;;2.60;2.40;;;25.50;45.90;;;;;;4973452;28;20214;-72
2022/05/18 06:08:38;;;;;;;1.98;1.88;;;25.60;45.70;;;;;;4973344;28;20675;-72
2022/05/18 06:11:06;;;;;;;2.38;2.17;;;25.60;45.50;;;;;;4973489;28;20198;-72
2022/05/18 06:13:33;;;;;;;2.20;2.00;;;25.70;45.20;;;;;;4974873;28;20565;-72
2022/05/18 06:16:00;;;;;;;2.40;2.20;;;25.80;45.10;;;;;;4973359;28;20293;-72
2022/05/18 06:18:29;;;;;;;2.08;1.98;;;25.90;45.50;;;;;;4973661;28;20198;-72
2022/05/18 06:20:56;;;;;;;2.50;2.30;;;25.90;44.70;;;;;;4974441;28;20256;-72
2022/05/18 06:23:24;;;;;;;2.10;2.00;;;26.00;44.70;;;;;;4975184;28;20241;-72
2022/05/18 06:25:51;;;;;;;2.05;1.95;;;26.00;44.50;;;;;;4973537;28;20277;-72
2022/05/18 06:28:18;;;;;;;2.10;1.88;;;26.10;44.50;;;;;;4974843;28;20190;-72
2022/05/18 06:30:45;;;;;;;2.10;2.00;;;26.20;44.40;;;;;;4978118;28;20190;-72
2022/05/18 06:33:12;;;;;;;1.80;1.70;;;26.30;44.20;;;;;;4977002;28;20244;-71
2022/05/18 06:35:41;;;;;;;2.03;1.92;;;26.30;44.10;;;;;;4976845;28;20230;-72
2022/05/18 06:38:12;;;;;;;1.92;1.83;;;26.40;43.90;;;;;;4978221;28;20519;-72
2022/05/18 06:43:24;;;;;;;2.78;2.13;;;26.50;43.70;;;;;;4977340;28;20186;-74
2022/05/18 06:45:51;;;;;;;2.00;1.90;;;26.60;43.50;;;;;;4977262;28;20257;-72
2022/05/18 06:48:18;;;;;;;2.03;1.92;;;26.60;43.90;;;;;;4978925;28;20190;-72
2022/05/18 06:50:47;;;;;;;1.92;1.83;;;26.70;43.20;;;;;;4976687;28;20249;-72
2022/05/18 06:53:14;;;;;;;2.20;2.00;;;26.80;43.10;;;;;;4977894;28;20667;-72
2022/05/18 06:55:41;;;;;;;2.08;1.98;;;26.80;42.90;;;;;;4976584;28;20237;-72
2022/05/18 06:58:08;;;;;;;2.03;1.92;;;26.90;42.80;;;;;;4977873;28;20198;-72
2022/05/18 07:00:35;;;;;;;2.13;1.92;;;26.90;42.70;;;;;;4978066;28;20194;-72
2022/05/18 07:03:02;;;;;;;2.22;2.08;;;27.00;42.60;;;;;;4976485;28;20205;-72
2022/05/18 07:05:29;;;;;;;1.80;1.70;;;27.00;42.50;;;;;;4976538;28;20216;-72
2022/05/18 07:07:57;;;;;;;2.75;1.90;;;27.10;42.40;;;;;;4976638;28;20296;-71
2022/05/18 07:10:26;;;;;;;2.13;2.00;;;27.10;42.90;;;;;;4976438;28;20198;-72
2022/05/18 07:12:53;;;;;;;2.00;1.90;;;27.20;42.20;;;;;;4977500;28;20194;-72
2022/05/18 07:15:21;;;;;;;2.42;1.95;;;27.20;42.60;;;;;;4975955;28;20233;-72
2022/05/18 07:17:48;;;;;;;1.80;1.70;;;27.20;42.60;;;;;;4976051;28;20200;-72
2022/05/18 07:20:15;;;;;;;2.10;1.88;;;27.30;42.00;;;;;;4975699;28;20241;-72
2022/05/18 07:22:43;;;;;;;2.22;2.05;;;27.30;41.90;;;;;;4975977;28;20191;-72
2022/05/18 07:25:11;;;;;;;2.35;2.15;;;27.30;41.70;;;;;;4977183;28;20630;-71
2022/05/18 07:27:39;;;;;;;1.80;1.70;;;27.40;41.70;;;;;;4975818;28;20662;-72
2022/05/18 07:30:09;;;;;;;1.92;1.83;;;27.40;41.60;;;;;;4977882;28;20265;-72
2022/05/18 07:32:37;;;;;;;1.88;1.77;;;27.50;42.20;;;;;;4975811;28;20260;-72
2022/05/18 07:35:05;;;;;;;2.42;2.08;;;27.60;41.50;;;;;;4976963;28;20222;-72
2022/05/18 07:37:32;;;;;;;1.90;1.80;;;27.60;41.40;;;;;;4976925;28;20194;-72
2022/05/18 07:39:59;;;;;;;1.83;1.73;;;27.60;41.30;;;;;;4976154;28;20248;-72
2022/05/18 07:42:28;;;;;;;2.28;2.08;;;27.60;41.30;;;;;;4975347;28;20265;-72
2022/05/18 07:44:55;;;;;;;1.80;1.70;;;27.70;41.20;;;;;;4975798;28;20589;-72
2022/05/18 07:47:28;;;;;;;2.33;1.90;;;27.70;41.10;;;;;;4976504;28;20721;-72
2022/05/18 07:49:55;;;;;;;2.13;1.92;;;27.80;41.10;;;;;;4976441;28;20182;-72
2022/05/18 07:52:22;;;;;;;2.08;1.98;;;27.80;41.00;;;;;;4976621;28;20189;-72
2022/05/18 07:54:50;;;;;;;2.28;2.00;;;27.80;40.90;;;;;;4976194;28;20629;-72
2022/05/18 07:57:18;;;;;;;1.90;1.80;;;27.80;40.80;;;;;;4975074;28;20208;-72
2022/05/18 07:59:46;;;;;;;1.98;1.80;;;27.90;40.80;;;;;;4976069;28;20284;-72
2022/05/18 08:02:13;;;;;;;2.35;1.80;;;27.90;40.60;;;;;;4975035;28;20198;-72
2022/05/18 08:04:40;;;;;;;1.90;1.80;;;27.90;40.60;;;;;;4976147;28;20190;-72
2022/05/18 08:07:07;;;;;;;1.80;1.70;;;27.90;40.60;;;;;;4976094;28;20663;-72
2022/05/18 08:15:05;;;;;;;1.70;1.60;;;28.00;40.60;;;;;;4975036;28;20197;-72
2022/05/18 08:15:07;;;;;;;1.98;1.88;;;28.00;40.30;;;;;;4974772;28;20360;-72
2022/05/18 08:17:35;;;;;;;1.95;1.85;;;28.10;40.40;;;;;;4975311;28;20212;-72
2022/05/18 08:20:06;;;;;;;2.00;1.90;;;28.10;40.90;;;;;;4977002;28;20554;-72
2022/05/18 08:22:33;;;;;;;1.90;1.80;;;28.10;40.20;;;;;;4977585;28;20557;-73
2022/05/18 08:25:00;;;;;;;1.90;1.80;;;28.10;40.20;;;;;;4974974;28;20213;-72
2022/05/18 08:27:28;;;;;;;1.90;1.80;;;28.20;40.30;;;;;;4974738;28;20209;-72
2022/05/18 08:30:00;;;;;;;1.80;1.70;;;28.20;40.10;;;;;;4974490;28;20217;-72
2022/05/18 08:32:29;;;;;;;1.83;1.73;;;28.20;40.10;;;;;;4974569;28;20252;-72
2022/05/18 08:34:56;;;;;;;2.00;1.80;;;28.20;40.10;;;;;;4975437;28;20213;-72
2022/05/18 08:37:23;;;;;;;1.80;1.70;;;28.20;40.10;;;;;;4974506;28;20197;-72
2022/05/18 08:39:51;;;;;;;2.15;2.00;;;28.20;40.10;;;;;;4975811;28;20224;-72
2022/05/18 08:42:18;;;;;;;2.30;2.10;;;28.20;40.20;;;;;;4974344;28;20233;-72
2022/05/18 08:44:45;;;;;;;2.03;1.80;;;28.20;40.10;;;;;;4974296;28;20308;-70
2022/05/18 08:47:13;;;;;;;1.92;1.83;;;28.20;40.10;;;;;;4975558;28;20217;-70
2022/05/18 08:49:46;;;;;;;2.00;1.90;;;28.20;40.20;;;;;;4975920;28;20186;-70
2022/05/18 08:52:35;;;;;;;2.00;1.90;;;28.20;40.30;;;;;;4975037;28;20181;-70
2022/05/18 08:55:19;;;;;;;1.90;1.80;;;28.20;40.20;;;;;;4964804;28;20276;-70
2022/05/18 08:57:48;;;;;;;1.85;1.70;;;28.20;40.30;;;;;;4974310;28;20203;-70
2022/05/18 09:00:19;;;;;;;1.80;1.70;;;28.20;40.20;;;;;;4974609;28;20306;-70
2022/05/18 09:02:46;;;;;;;1.73;1.63;;;28.20;40.30;;;;;;4974252;28;20216;-70
2022/05/18 09:05:15;;;;;;;1.80;1.70;;;28.10;40.20;;;;;;4974400;28;20260;-70
2022/05/18 09:07:57;;;;;;;1.90;1.80;;;28.10;40.30;;;;;;4974276;28;20193;-70
2022/05/18 09:10:26;;;;;;;1.77;1.67;;;28.10;41.00;;;;;;4974261;28;20190;-70
2022/05/18 09:12:53;;;;;;;1.92;1.83;;;28.10;40.40;;;;;;4974280;28;20220;-70
2022/05/18 09:15:34;;;;;;;1.67;1.58;;;28.10;40.40;;;;;;4974355;28;20405;-70
2022/05/18 09:18:04;;;;;;;1.90;1.80;;;28.10;40.40;;;;;;4974541;28;20280;-70
2022/05/18 09:20:37;;;;;;;1.90;1.80;;;28.00;40.50;;;;;;4974036;28;20228;-70
2022/05/18 09:23:15;;;;;;;2.13;2.00;;;28.00;40.40;;;;;;4977158;28;20252;-70
2022/05/18 09:25:51;;;;;;;1.88;1.77;;;28.00;40.50;;;;;;4984000;28;20248;-70
2022/05/18 09:28:32;;;;;;;1.80;1.70;;;28.00;40.60;;;;;;4981333;28;20264;-70
2022/05/18 09:31:07;;;;;;;2.08;1.98;;;28.00;41.10;;;;;;4975533;28;20617;-70
2022/05/18 09:33:44;;;;;;;1.90;1.80;;;27.90;40.60;;;;;;4975371;28;20200;-72
2022/05/18 09:36:20;;;;;;;2.13;2.00;;;27.90;41.40;;;;;;4973822;28;20218;-72
2022/05/18 09:38:50;;;;;;;1.98;1.88;;;27.90;40.80;;;;;;4973760;28;20730;-72
2022/05/18 09:41:19;;;;;;;1.73;1.63;;;27.90;41.00;;;;;;4973935;28;20193;-72
2022/05/18 09:43:48;;;;;;;1.88;1.77;;;27.80;41.00;;;;;;4973895;28;20205;-72
2022/05/18 09:46:19;;;;;;;2.08;1.90;;;27.80;41.00;;;;;;4973970;28;20724;-73
2022/05/18 09:48:48;;;;;;;1.70;1.60;;;27.80;41.10;;;;;;4975016;28;20186;-72
2022/05/18 09:51:16;;;;;;;1.85;1.70;;;27.80;41.20;;;;;;4973767;28;20209;-72
2022/05/18 09:53:43;;;;;;;2.03;1.80;;;27.70;41.20;;;;;;5051282;23;20377;-71
2022/05/18 09:56:13;;;;;;;1.80;1.70;;;27.70;41.30;;;;;;4973383;28;20218;-71
2022/05/18 09:58:40;;;;;;;1.90;1.80;;;27.70;41.30;;;;;;4973293;28;20686;-71
2022/05/18 10:09:41;;;;;;;1.90;1.80;;;27.50;41.50;;;;;;4958062;28;20264;-71
2022/05/18 10:12:13;;;;;;;1.65;1.55;;;27.50;41.50;;;;;;4959217;28;20196;-71
2022/05/18 10:14:40;;;;;;;1.58;1.48;;;27.50;41.60;;;;;;4958826;28;20214;-71
2022/05/18 10:17:09;;;;;;;1.77;1.67;;;27.40;41.60;;;;;;4958999;28;20249;-71
2022/05/18 10:19:38;;;;;;;1.70;1.60;;;27.40;41.70;;;;;;4959239;28;20190;-71
2022/05/18 10:22:07;;;;;;;1.70;1.60;;;27.40;41.80;;;;;;4957543;28;20202;-71
2022/05/18 10:24:37;;;;;;;1.73;1.63;;;27.40;41.90;;;;;;4958895;28;20225;-72
2022/05/18 10:27:13;;;;;;;1.67;1.58;;;27.30;41.90;;;;;;4957718;29;20230;-72
2022/05/18 10:29:41;;;;;;;1.80;1.70;;;27.30;42.00;;;;;;4958670;28;20190;-71
2022/05/18 10:32:09;;;;;;;1.85;1.75;;;27.30;42.10;;;;;;4958806;28;20285;-71
2022/05/18 10:34:42;;;;;;;1.80;1.70;;;27.20;42.00;;;;;;4957440;28;20248;-71
2022/05/18 10:37:12;;;;;;;1.70;1.60;;;27.20;42.00;;;;;;4958378;28;20206;-71
2022/05/18 10:39:40;;;;;;;1.90;1.80;;;27.20;42.00;;;;;;4957430;28;20277;-71
2022/05/18 10:42:17;;;;;;;1.90;1.80;;;27.20;42.00;;;;;;4957634;28;20300;-71
2022/05/18 10:44:44;;;;;;;1.67;1.58;;;27.20;42.20;;;;;;4957551;28;20276;-71
2022/05/18 10:47:20;;;;;;;1.80;1.70;;;27.10;42.20;;;;;;4958794;28;20210;-71
2022/05/18 10:49:47;;;;;;;1.80;1.70;;;27.10;42.30;;;;;;4957823;29;20265;-74
2022/05/18 10:52:17;;;;;;;1.83;1.73;;;27.10;42.40;;;;;;4957323;28;20198;-72
2022/05/18 10:54:55;;;;;;;1.80;1.70;;;27.00;42.40;;;;;;4957009;28;20703;-72
2022/05/18 10:57:30;;;;;;;1.60;1.50;;;27.00;42.50;;;;;;4957099;28;20222;-72
2022/05/18 11:00:00;;;;;;;1.80;1.70;;;27.00;42.60;;;;;;4956973;28;20190;-72
2022/05/18 11:02:31;;;;;;;1.73;1.63;;;26.90;42.70;;;;;;4956881;28;20190;-72
2022/05/18 11:05:00;;;;;;;1.65;1.55;;;26.90;42.80;;;;;;4957175;28;20230;-72
2022/05/18 11:07:29;;;;;;;1.92;1.83;;;26.90;42.90;;;;;;4956674;29;20261;-72
2022/05/18 11:09:57;;;;;;;1.75;1.65;;;26.80;43.00;;;;;;4956842;28;20250;-72
2022/05/18 11:12:40;;;;;;;1.83;1.73;;;26.80;43.10;;;;;;4957943;28;20194;-72
2022/05/18 11:15:09;;;;;;;1.90;1.80;;;26.80;43.80;;;;;;4956921;28;20304;-72
2022/05/18 11:17:46;;;;;;;1.70;1.60;;;26.80;43.30;;;;;;4957605;28;20225;-72
2022/05/18 11:20:20;;;;;;;1.75;1.65;;;26.70;43.20;;;;;;4956674;28;20197;-73
2022/05/18 11:22:53;;;;;;;1.70;1.60;;;26.70;43.30;;;;;;4956299;28;20241;-72
2022/05/18 11:25:25;;;;;;;1.70;1.60;;;26.70;43.40;;;;;;4956312;28;20256;-72
2022/05/18 11:27:52;;;;;;;1.60;1.50;;;26.60;43.40;;;;;;4956513;28;20199;-72
2022/05/18 11:30:22;;;;;;;1.80;1.70;;;26.60;43.40;;;;;;4956270;28;20206;-72
2022/05/18 11:32:59;;;;;;;1.70;1.60;;;26.70;43.50;;;;;;4957699;28;20204;-72
2022/05/18 11:35:34;;;;;;;1.40;1.40;;;26.60;43.50;;;;;;4956104;28;20273;-72
2022/05/18 11:38:25;;;;;;;1.70;1.60;;;26.60;43.60;;;;;;4956069;29;20209;-72
2022/05/18 11:40:59;;;;;;;1.70;1.60;;;26.60;43.60;;;;;;4957114;28;20277;-72
2022/05/18 11:43:35;;;;;;;1.75;1.65;;;26.60;43.70;;;;;;4956034;29;20644;-70
2022/05/18 11:46:33;;;;;;;1.70;1.60;;;26.60;43.70;;;;;;4957385;28;20190;-72
2022/05/18 11:49:02;;;;;;;1.80;1.70;;;26.60;43.70;;;;;;4956931;28;20679;-72
2022/05/18 11:51:36;;;;;;;1.70;1.60;;;26.60;43.80;;;;;;4957536;28;20202;-72
2022/05/18 11:54:11;;;;;;;1.80;1.70;;;26.50;43.90;;;;;;4955786;28;20273;-72
2022/05/18 11:56:41;;;;;;;1.77;1.67;;;26.60;43.90;;;;;;4957243;29;20198;-72
2022/05/18 11:59:29;;;;;;;1.63;1.52;;;26.50;43.90;;;;;;4955844;28;20210;-72
2022/05/18 12:02:02;;;;;;;1.60;1.50;;;26.50;44.00;;;;;;4957308;28;20189;-72
2022/05/18 12:04:50;;;;;;;2.00;1.80;;;26.50;44.00;;;;;;4955485;28;20246;-72
2022/05/18 12:07:24;;;;;;;1.70;1.60;;;26.50;44.10;;;;;;4955713;28;20195;-72
2022/05/18 12:10:19;;;;;;;1.60;1.50;;;26.50;44.20;;;;;;4957156;28;20183;-72
2022/05/18 12:12:49;;;;;;;1.52;1.42;;;26.40;44.20;;;;;;4955721;28;20209;-72
2022/05/18 12:15:19;;;;;;;1.50;1.50;;;26.40;44.30;;;;;;4956703;28;20298;-72
2022/05/18 12:17:48;;;;;;;1.70;1.60;;;26.30;44.30;;;;;;4955318;28;20234;-72
2022/05/18 12:20:18;;;;;;;1.80;1.70;;;26.30;44.40;;;;;;4955335;28;20266;-72
2022/05/18 12:22:47;;;;;;;1.63;1.52;;;26.30;45.10;;;;;;4955539;28;20281;-72
2022/05/18 12:25:16;;;;;;;1.80;1.70;;;26.30;44.50;;;;;;4956766;28;20214;-72
2022/05/18 12:27:44;;;;;;;1.63;1.52;;;26.30;44.70;;;;;;4955430;28;20205;-72
2022/05/18 12:30:12;;;;;;;1.80;1.70;;;26.20;44.70;;;;;;4956746;28;20193;-72
2022/05/18 12:32:39;;;;;;;1.80;1.70;;;26.20;44.90;;;;;;4956397;28;20254;-72
2022/05/18 12:35:12;;;;;;;1.70;1.60;;;26.20;44.90;;;;;;4956513;28;20228;-72
2022/05/18 12:37:49;;;;;;;1.77;1.67;;;26.20;45.00;;;;;;4955597;29;20626;-72
2022/05/18 12:40:36;;;;;;;1.60;1.50;;;26.20;45.00;;;;;;4957206;28;20208;-72
2022/05/18 12:43:13;;;;;;;1.67;1.58;;;26.20;45.00;;;;;;4958044;28;20573;-72
2022/05/18 12:45:42;;;;;;;1.80;1.70;;;26.20;45.10;;;;;;4957492;28;20206;-72
2022/05/18 12:48:14;;;;;;;1.80;1.70;;;26.20;45.10;;;;;;4956890;28;20289;-72
2022/05/18 12:50:44;;;;;;;1.80;1.70;;;26.20;45.20;;;;;;4955227;29;20222;-71
2022/05/18 12:53:15;;;;;;;1.73;1.63;;;26.10;45.20;;;;;;4955465;28;20230;-70
2022/05/18 12:55:44;;;;;;;1.70;1.60;;;26.10;45.80;;;;;;4957619;28;20210;-71
2022/05/18 12:58:30;;;;;;;1.80;1.70;;;26.10;45.20;;;;;;4971080;28;20222;-71
2022/05/18 13:01:04;;;;;;;1.70;1.60;;;26.10;45.20;;;;;;4972524;28;20208;-70
2022/05/18 13:03:42;;;;;;;1.60;1.50;;;26.10;45.30;;;;;;4965868;28;20576;-71
2022/05/18 13:06:18;;;;;;;1.70;1.60;;;26.10;45.90;;;;;;4957007;28;20218;-70
2022/05/18 13:09:21;;;;;;;1.75;1.65;;;26.10;45.90;;;;;;4957185;28;20190;-71
2022/05/18 13:11:49;;;;;;;1.70;1.60;;;26.10;45.30;;;;;;4955051;28;20202;-71
2022/05/18 13:14:56;;;;;;;1.70;1.60;;;26.10;45.40;;;;;;4956010;28;20233;-70
2022/05/18 13:17:37;;;;;;;1.80;1.70;;;26.10;45.40;;;;;;4917043;29;20222;-70